Time;durP1;ratioP1;P1;durP2;ratioP2;P2;SDS_P1;SDS_P2;PMS_P1;PMS_P2;Temp;Humidity;BMP_temperature;BMP_pressure;BME280_temperature;BME280_humidity;BME280_pressure;Samples;Min_cycle;Max_cycle;Signal;HPM_P1;HPM_P2
2022/12/11 03:06:07;;;;;;;9.73;8.73;;;;;;;3.93;93.74;92411.27;1819680;77;25618;-42
2022/12/11 03:08:34;;;;;;;10.00;8.93;;;;;;;3.91;93.51;92409.59;1792863;78;20954;-45
2022/12/11 03:11:01;;;;;;;9.00;8.10;;;;;;;3.93;93.22;92403.11;1791128;79;21227;-44
2022/12/11 03:13:28;;;;;;;9.75;8.58;;;;;;;3.92;93.18;92396.16;1790344;78;20945;-43
2022/12/11 03:16:03;;;;;;;9.80;8.45;;;;;;;3.93;93.20;92390.87;1791332;78;20985;-43
2022/12/11 03:19:02;;;;;;;11.43;8.40;;;;;;;3.90;92.98;92378.17;1792145;79;21069;-43
2022/12/11 03:21:34;;;;;;;12.53;9.80;;;;;;;3.90;93.21;92372.00;1760030;80;20972;-44
2022/12/11 03:24:06;;;;;;;11.05;9.40;;;;;;;4.03;93.91;92385.50;1770966;80;21179;-44
2022/12/11 03:26:41;;;;;;;10.25;8.68;;;;;;;4.15;93.52;92381.81;1765046;80;21118;-44
2022/12/11 03:29:21;;;;;;;14.05;8.88;;;;;;;4.22;93.17;92380.72;1760425;80;21544;-44
2022/12/11 03:31:58;;;;;;;10.68;8.68;;;;;;;4.26;92.61;92386.11;1782947;80;21558;-43
2022/12/11 03:34:30;;;;;;;11.00;8.93;;;;;;;4.26;92.12;92381.28;1708763;83;20997;-43
2022/12/11 03:36:57;;;;;;;13.18;10.55;;;;;;;4.22;92.06;92371.19;1709837;83;21148;-43
2022/12/11 03:39:31;;;;;;;12.70;9.35;;;;;;;4.19;92.03;92359.86;1704613;83;21033;-44
2022/12/11 03:42:00;;;;;;;12.75;10.23;;;;;;;4.17;91.87;92353.53;1718121;82;21503;-44
2022/12/11 03:44:28;;;;;;;13.43;10.45;;;;;;;4.14;91.87;92338.74;1717858;82;21029;-44
2022/12/11 03:46:56;;;;;;;10.58;9.45;;;;;;;4.16;92.30;92334.35;1708246;82;21044;-44
2022/12/11 03:49:27;;;;;;;10.70;9.58;;;;;;;4.24;92.27;92325.97;1699373;83;22043;-44
2022/12/11 03:51:55;;;;;;;13.78;10.45;;;;;;;4.31;92.23;92322.91;1712344;83;21081;-45
2022/12/11 03:54:22;;;;;;;13.22;10.40;;;;;;;4.39;92.06;92313.15;1717318;83;21101;-43
2022/12/11 03:56:50;;;;;;;11.85;9.68;;;;;;;4.44;91.82;92300.87;1705026;83;21009;-42
2022/12/11 03:59:17;;;;;;;9.20;8.30;;;;;;;4.45;91.49;92301.75;1701497;83;20985;-43
2022/12/11 04:01:43;;;;;;;9.65;8.35;;;;;;;4.53;91.55;92298.81;1716851;83;21235;-43
2022/12/11 04:04:10;;;;;;;8.53;7.62;;;;;;;4.59;91.09;92306.47;1714641;83;21180;-44
2022/12/11 04:06:37;;;;;;;8.48;7.67;;;;;;;4.61;90.38;92289.05;1690731;83;21065;-41
2022/12/11 04:09:04;;;;;;;8.35;7.28;;;;;;;4.59;89.67;92286.05;1706597;82;21588;-42
2022/12/11 04:11:34;;;;;;;7.85;7.05;;;;;;;4.60;89.71;92276.66;1714695;83;21065;-43
2022/12/11 04:16:54;;;;;;;;;;;;;;;4.69;88.67;92277.94;1705654;82;21174;-43
2022/12/11 04:24:14;;;;;;;8.50;7.70;;;;;;;4.67;88.44;92296.72;1662087;85;21083;-44
2022/12/11 04:24:42;;;;;;;15.38;9.75;;;;;;;4.72;88.42;92291.97;1634048;86;21002;-43
2022/12/11 04:27:09;;;;;;;10.32;8.75;;;;;;;4.74;88.24;92286.81;1641301;86;21262;-44
2022/12/11 04:29:36;;;;;;;8.93;8.03;;;;;;;4.80;88.25;92289.63;1619252;86;21027;-43
2022/12/11 04:32:03;;;;;;;8.73;7.85;;;;;;;4.82;88.20;92283.84;1657419;85;21104;-43
2022/12/11 04:34:29;;;;;;;7.95;7.15;;;;;;;4.86;87.98;92285.78;1661870;85;21119;-44
2022/12/11 04:36:56;;;;;;;8.60;7.67;;;;;;;4.93;87.92;92274.50;1656251;85;21060;-43
2022/12/11 04:39:23;;;;;;;9.03;8.20;;;;;;;4.94;87.26;92266.47;1645517;85;21611;-44
2022/12/11 04:41:49;;;;;;;9.50;8.20;;;;;;;4.90;86.70;92265.15;1657508;85;22282;-44
2022/12/11 04:44:16;;;;;;;11.38;9.03;;;;;;;4.79;86.83;92258.91;1660634;85;21679;-44
2022/12/11 04:46:43;;;;;;;11.80;10.03;;;;;;;4.75;86.98;92254.27;1649603;86;21628;-44
2022/12/11 04:49:11;;;;;;;10.50;9.03;;;;;;;4.71;86.97;92250.23;1648998;86;21049;-44
2022/12/11 04:51:38;;;;;;;10.23;8.20;;;;;;;4.72;87.35;92253.86;1647112;86;22129;-44
2022/12/11 04:54:06;;;;;;;8.55;7.55;;;;;;;4.69;87.08;92249.36;1682031;83;20982;-44
2022/12/11 04:56:32;;;;;;;12.28;9.38;;;;;;;4.66;87.49;92242.73;1687385;83;21077;-44
2022/12/11 04:59:00;;;;;;;13.53;9.90;;;;;;;4.64;87.53;92235.02;1689429;83;21146;-44
2022/12/11 09:12:10;;;;;;;16.40;13.45;;;;;;;4.70;93.01;92030.92;1828887;77;26225;-45
2022/12/11 09:14:38;;;;;;;16.85;11.90;;;;;;;4.83;92.49;92025.91;1804560;78;21539;-46
2022/12/11 09:17:04;;;;;;;11.50;8.63;;;;;;;4.98;91.97;92025.95;1792170;79;21494;-46
2022/12/11 09:19:31;;;;;;;8.65;7.75;;;;;;;5.15;91.76;92030.99;1802902;78;20957;-46
2022/12/11 09:21:58;;;;;;;8.00;7.22;;;;;;;5.37;91.44;92040.17;1802704;78;20951;-50
2022/12/11 09:24:25;;;;;;;10.38;9.25;;;;;;;5.57;91.25;92023.04;1784550;78;20991;-43
2022/12/11 09:26:53;;;;;;;14.60;11.73;;;;;;;5.79;90.56;92036.91;1796766;78;21489;-45
2022/12/11 09:29:20;;;;;;;14.43;11.48;;;;;;;5.96;89.77;92037.81;1786916;78;21135;-44
2022/12/11 09:31:48;;;;;;;20.57;15.32;;;;;;;6.12;89.11;92042.66;1800695;78;21041;-43
2022/12/11 09:34:15;;;;;;;26.00;17.30;;;;;;;6.26;88.25;92046.62;1808878;78;21443;-46
2022/12/11 09:36:43;;;;;;;32.95;18.73;;;;;;;6.38;87.29;92024.23;1795738;79;20966;-46
2022/12/11 09:39:10;;;;;;;30.65;17.62;;;;;;;6.52;86.86;92030.91;1797341;78;21168;-45
2022/12/11 09:41:59;;;;;;;11.95;9.63;;;;;;;6.68;86.82;92022.70;1814547;79;21075;-45
2022/12/11 09:45:01;;;;;;;9.58;8.60;;;;;;;6.95;86.58;92021.48;1746844;81;21120;-45
2022/12/11 09:47:36;;;;;;;11.75;8.90;;;;;;;7.19;84.97;92014.36;1747782;82;20981;-47
2022/12/11 09:50:14;;;;;;;17.02;10.88;;;;;;;7.29;84.13;92020.36;1746502;81;21028;-48
2022/12/11 09:52:50;;;;;;;18.12;12.47;;;;;;;7.43;83.24;92022.92;1745652;81;21098;-45
2022/12/11 09:55:20;;;;;;;8.75;7.30;;;;;;;7.55;81.92;92022.33;1745403;81;21244;-47
2022/12/11 09:58:11;;;;;;;7.55;6.85;;;;;;;7.63;80.86;92016.49;1745445;81;21037;-46
2022/12/11 10:00:48;;;;;;;15.50;14.00;;;;;;;7.63;78.89;92029.56;1743103;81;20953;-45
2022/12/11 10:03:30;;;;;;;11.05;9.90;;;;;;;7.38;78.14;92028.37;1669705;84;21570;-46
2022/12/11 10:06:09;;;;;;;14.75;11.75;;;;;;;7.12;78.27;92027.78;1674153;84;21530;-47
2022/12/11 10:08:48;;;;;;;13.83;11.03;;;;;;;6.94;78.67;92034.27;1671790;84;21339;-46
2022/12/11 10:11:32;;;;;;;16.50;11.75;;;;;;;6.82;79.28;92044.98;1669890;84;21233;-46
2022/12/11 10:14:07;;;;;;;15.53;11.48;;;;;;;6.73;79.89;92054.77;1668189;84;21099;-45
2022/12/11 10:16:55;;;;;;;14.43;9.95;;;;;;;6.63;79.81;92053.44;1668559;84;21112;-46
2022/12/11 10:19:29;;;;;;;13.55;10.18;;;;;;;6.62;80.43;92060.14;1642566;84;21093;-45
2022/12/11 10:21:56;;;;;;;27.07;18.45;;;;;;;6.76;80.39;92064.70;1672801;84;21315;-46
2022/12/11 10:24:36;;;;;;;14.75;11.63;;;;;;;7.00;79.87;92069.19;1680187;84;21589;-44
2022/12/11 10:27:18;;;;;;;12.75;9.80;;;;;;;7.18;79.03;92072.28;1667258;84;21092;-49
2022/12/11 10:29:46;;;;;;;12.05;8.88;;;;;;;7.29;78.64;92073.68;1656253;86;21481;-44
2022/12/11 10:32:22;;;;;;;12.13;8.20;;;;;;;7.31;77.60;92076.06;1653738;86;21144;-47
2022/12/11 10:34:57;;;;;;;12.30;9.00;;;;;;;7.34;77.09;92094.22;1602579;88;22574;-45
2022/12/11 10:37:24;;;;;;;14.30;11.35;;;;;;;7.31;77.25;92099.30;1597052;89;20992;-45
2022/12/11 10:39:51;;;;;;;12.33;8.75;;;;;;;7.30;77.56;92096.44;1574674;88;21116;-45
2022/12/11 10:42:19;;;;;;;13.48;10.13;;;;;;;7.31;77.44;92091.73;1610946;87;21679;-46
2022/12/11 10:45:01;;;;;;;15.40;10.30;;;;;;;7.30;77.21;92085.50;1607423;88;21255;-45
2022/12/11 10:47:28;;;;;;;20.35;13.58;;;;;;;7.34;77.25;92070.97;1605885;88;21152;-47
2022/12/11 10:49:59;;;;;;;17.37;13.25;;;;;;;7.60;77.71;92068.85;1604412;87;21096;-45
2022/12/11 10:52:37;;;;;;;15.00;11.43;;;;;;;7.95;77.29;92052.77;1539718;91;21228;-46
2022/12/11 10:55:20;;;;;;;15.05;11.18;;;;;;;8.28;76.51;92052.81;1550312;92;21242;-46
2022/12/11 10:58:05;;;;;;;13.32;10.53;;;;;;;8.35;74.66;92040.62;1538778;92;21701;-45
2022/12/11 11:01:13;;;;;;;24.20;16.85;;;;;;;8.36;73.75;92027.05;1551751;91;21116;-47
2022/12/11 11:04:06;;;;;;;26.45;20.48;;;;;;;8.49;73.99;92030.80;1470197;95;21088;-46
2022/12/11 15:01:26;;;;;;;14.07;11.30;;;;;;;4.70;83.24;92366.58;1832040;77;26361;-44
2022/12/11 15:04:21;;;;;;;14.23;10.28;;;;;;;4.64;83.21;92377.95;1772492;79;20958;-45
2022/12/11 15:06:50;;;;;;;10.90;9.23;;;;;;;4.68;83.30;92381.27;1803328;78;21920;-45
2022/12/11 15:09:36;;;;;;;17.50;13.78;;;;;;;4.69;83.12;92386.85;1808246;78;20951;-47
2022/12/11 15:12:12;;;;;;;272.85;113.42;;;;;;;4.73;83.16;92390.73;1800239;78;21006;-45
2022/12/11 15:15:02;;;;;;;125.27;58.23;;;;;;;4.77;83.29;92389.97;1796439;78;21509;-43
2022/12/11 15:17:30;;;;;;;35.58;19.90;;;;;;;4.86;82.94;92392.00;1705815;83;21013;-45
2022/12/11 15:20:12;;;;;;;19.20;13.10;;;;;;;4.93;82.20;92397.70;1707401;83;21350;-44
2022/12/11 15:22:41;;;;;;;18.07;12.07;;;;;;;4.92;82.41;92404.33;1695643;82;20970;-46
2022/12/11 15:25:20;;;;;;;10.30;7.95;;;;;;;4.89;82.66;92415.58;1703195;82;21013;-44
2022/12/11 15:27:53;;;;;;;9.45;8.45;;;;;;;4.87;82.43;92419.38;1695397;83;21501;-45
2022/12/11 15:30:27;;;;;;;13.80;10.48;;;;;;;4.84;82.21;92416.23;1703826;83;20993;-45
2022/12/11 15:33:12;;;;;;;18.87;14.55;;;;;;;4.82;82.13;92421.36;1713972;83;21557;-45
2022/12/11 15:35:41;;;;;;;32.70;20.65;;;;;;;4.85;82.13;92427.86;1663148;84;20993;-45
2022/12/11 15:38:26;;;;;;;24.25;16.35;;;;;;;4.88;82.25;92429.05;1665288;85;21042;-45
2022/12/11 15:40:53;;;;;;;29.05;18.20;;;;;;;4.89;82.15;92441.45;1631435;87;21391;-46
2022/12/11 15:43:21;;;;;;;30.43;19.77;;;;;;;4.88;82.38;92438.58;1587058;88;21085;-46
2022/12/11 15:45:48;;;;;;;35.03;19.95;;;;;;;4.90;82.29;92440.23;1599832;87;21593;-45
2022/12/11 15:48:14;;;;;;;31.17;20.37;;;;;;;4.92;82.19;92440.52;1595489;87;21110;-44
2022/12/11 15:50:42;;;;;;;22.98;15.90;;;;;;;4.92;81.73;92452.77;1601650;88;20973;-45
2022/12/11 15:53:09;;;;;;;26.75;16.75;;;;;;;4.94;81.52;92464.57;1603254;87;21047;-48
2022/12/11 15:55:36;;;;;;;23.87;15.75;;;;;;;4.93;81.16;92470.61;1614151;86;21092;-47
2022/12/11 15:58:08;;;;;;;20.10;14.98;;;;;;;4.89;81.26;92464.60;1602689;87;21118;-47
2022/12/11 16:00:35;;;;;;;25.85;17.77;;;;;;;4.87;81.69;92470.36;1601700;89;21109;-50
2022/12/11 16:03:02;;;;;;;32.33;21.35;;;;;;;4.90;81.64;92468.83;1626679;88;20990;-46
2022/12/11 16:05:30;;;;;;;22.13;16.17;;;;;;;4.92;81.46;92473.20;1616431;86;21045;-46
2022/12/11 16:07:59;;;;;;;20.37;15.58;;;;;;;4.94;81.29;92478.19;1595183;87;21033;-46
2022/12/11 16:10:26;;;;;;;18.40;14.10;;;;;;;4.93;81.34;92475.33;1632633;87;21489;-47
2022/12/11 16:12:58;;;;;;;24.60;20.25;;;;;;;4.92;81.32;92474.56;1600543;87;21144;-46
2022/12/11 16:15:22;;;;;;;15.13;13.45;;;;;;;4.90;81.29;92487.89;1612015;88;21044;-45
2022/12/11 16:17:49;;;;;;;18.00;14.45;;;;;;;4.90;81.61;92489.25;1621679;86;21090;-46
2022/12/11 16:20:17;;;;;;;20.92;15.30;;;;;;;4.91;81.70;92486.67;1599678;87;20993;-44
2022/12/11 16:22:44;;;;;;;23.70;15.80;;;;;;;4.90;81.48;92476.23;1596448;89;21358;-44
2022/12/11 16:25:10;;;;;;;25.50;17.55;;;;;;;4.87;81.71;92489.42;1588323;89;21516;-46
2022/12/11 16:27:39;;;;;;;31.62;20.70;;;;;;;4.82;81.87;92485.98;1601718;88;21004;-45
2022/12/11 16:30:09;;;;;;;30.00;20.60;;;;;;;4.85;82.17;92483.69;1605990;86;21025;-46
2022/12/11 16:32:36;;;;;;;17.65;13.10;;;;;;;4.83;82.13;92482.78;1686503;83;20982;-46
2022/12/11 16:35:05;;;;;;;20.90;14.18;;;;;;;4.77;81.89;92492.82;1786434;78;21300;-44
2022/12/11 16:37:33;;;;;;;17.52;13.15;;;;;;;4.72;82.15;92485.30;1796345;78;21042;-45
2022/12/11 16:40:00;;;;;;;76.95;50.10;;;;;;;4.76;82.52;92494.04;1809836;78;21073;-47
2022/12/11 16:42:27;;;;;;;60.28;37.93;;;;;;;4.85;82.61;92491.86;1785319;78;21006;-44
2022/12/11 16:44:54;;;;;;;28.62;18.90;;;;;;;4.94;82.39;92494.53;1793856;78;21065;-45
2022/12/11 16:47:20;;;;;;;46.50;30.32;;;;;;;4.97;81.96;92491.61;1746016;80;21216;-45
2022/12/11 16:49:48;;;;;;;38.53;22.07;;;;;;;4.93;81.99;92502.56;1734281;81;21014;-44
2022/12/11 16:52:15;;;;;;;40.25;26.10;;;;;;;4.90;82.14;92506.19;1734216;81;20979;-46
2022/12/11 16:54:42;;;;;;;52.62;32.53;;;;;;;4.90;82.16;92512.41;1757198;80;21483;-45
2022/12/11 16:57:09;;;;;;;37.98;25.50;;;;;;;4.88;82.16;92506.67;1764918;80;21080;-45
2022/12/11 16:59:39;;;;;;;78.55;44.85;;;;;;;4.89;82.28;92493.20;1771530;80;22006;-45
2022/12/11 17:02:06;;;;;;;30.10;18.77;;;;;;;4.94;82.53;92499.98;1782722;80;20934;-44
2022/12/11 21:01:59;;;;;;;43.48;25.37;;;;;;;3.49;86.31;92667.05;1839519;77;26212;-44
2022/12/11 21:04:27;;;;;;;42.62;23.85;;;;;;;3.49;86.52;92671.13;1767099;80;21021;-47
2022/12/11 21:06:54;;;;;;;37.75;22.73;;;;;;;3.52;86.50;92672.93;1804918;78;21937;-47
2022/12/11 21:09:23;;;;;;;36.15;22.77;;;;;;;3.54;86.72;92688.18;1786975;79;20943;-45
2022/12/11 21:11:50;;;;;;;40.88;23.90;;;;;;;3.61;86.86;92690.61;1798542;78;21446;-44
2022/12/11 21:14:17;;;;;;;28.52;17.57;;;;;;;3.68;86.56;92676.72;1786031;78;21095;-43
2022/12/11 21:16:44;;;;;;;28.55;16.80;;;;;;;3.73;86.27;92666.58;1786470;79;20941;-44
2022/12/11 21:19:14;;;;;;;21.25;14.58;;;;;;;3.73;86.48;92661.77;1795779;78;21823;-50
2022/12/11 21:21:41;;;;;;;27.07;16.37;;;;;;;3.80;86.40;92669.02;1805644;78;21514;-45
2022/12/11 21:24:18;;;;;;;41.55;24.63;;;;;;;3.87;86.24;92673.39;1790468;79;21001;-43
2022/12/11 21:26:45;;;;;;;68.92;32.60;;;;;;;3.89;85.66;92670.35;1785945;79;20974;-45
2022/12/11 21:29:13;;;;;;;72.72;32.65;;;;;;;3.83;85.40;92660.56;1791758;79;21025;-45
2022/12/11 21:31:41;;;;;;;73.17;35.05;;;;;;;3.80;85.58;92638.34;1793303;78;21249;-44
2022/12/11 21:34:09;;;;;;;35.60;20.27;;;;;;;3.87;85.83;92649.66;1790052;78;20954;-44
2022/12/11 21:36:35;;;;;;;18.15;13.38;;;;;;;3.90;84.40;92660.98;1769528;79;21437;-45
2022/12/11 21:39:03;;;;;;;14.13;9.88;;;;;;;3.88;81.75;92666.75;1793629;78;21534;-45
2022/12/11 21:41:29;;;;;;;8.65;6.90;;;;;;;3.81;79.68;92684.70;1790337;79;20947;-43
2022/12/11 21:43:57;;;;;;;10.18;7.60;;;;;;;3.76;78.40;92688.05;1790292;79;21169;-44
2022/12/11 21:46:26;;;;;;;8.83;7.70;;;;;;;3.69;78.04;92685.64;1807126;78;20955;-44
2022/12/11 21:48:52;;;;;;;11.60;9.88;;;;;;;3.65;77.90;92683.06;1818482;78;20989;-44
2022/12/11 21:51:23;;;;;;;8.35;7.22;;;;;;;3.71;77.79;92686.67;1792568;78;20946;-44
2022/12/11 21:53:51;;;;;;;7.70;6.80;;;;;;;3.74;76.62;92685.02;1760456;80;20983;-44
2022/12/11 21:56:20;;;;;;;6.35;5.75;;;;;;;3.70;76.46;92693.33;1757973;80;21224;-44
2022/12/11 21:58:47;;;;;;;7.55;6.30;;;;;;;3.64;75.00;92696.50;1760053;80;21550;-45
2022/12/11 22:01:24;;;;;;;8.80;7.90;;;;;;;3.57;74.90;92691.97;1755916;81;21565;-45
2022/12/11 22:03:51;;;;;;;7.53;6.83;;;;;;;3.52;75.04;92687.14;1669244;84;21002;-43
2022/12/11 22:06:18;;;;;;;8.15;7.28;;;;;;;3.49;75.02;92680.63;1671057;84;20999;-43
2022/12/11 22:08:47;;;;;;;9.38;8.48;;;;;;;3.46;75.00;92681.39;1663077;84;21113;-44
2022/12/11 22:11:18;;;;;;;14.05;11.68;;;;;;;3.42;75.12;92676.72;1681912;84;21062;-43
2022/12/11 22:13:46;;;;;;;10.70;8.35;;;;;;;3.42;75.01;92672.64;1678974;84;21185;-44
2022/12/11 22:16:12;;;;;;;8.60;7.05;;;;;;;3.46;75.05;92674.59;1674651;84;21001;-44
2022/12/11 22:18:39;;;;;;;7.78;6.78;;;;;;;3.48;74.83;92676.41;1671900;84;21198;-43
2022/12/11 22:21:06;;;;;;;9.28;8.35;;;;;;;3.48;74.50;92673.54;1683411;84;21173;-44
2022/12/11 22:23:33;;;;;;;11.35;9.38;;;;;;;3.42;74.54;92668.56;1672784;84;21075;-43
2022/12/11 22:26:00;;;;;;;13.13;8.93;;;;;;;3.45;74.54;92674.45;1653970;85;21072;-43
2022/12/11 22:28:27;;;;;;;11.55;8.60;;;;;;;3.42;74.31;92678.07;1664383;85;21578;-43
2022/12/11 22:30:53;;;;;;;11.50;9.43;;;;;;;3.44;74.50;92681.09;1684496;84;21506;-44
2022/12/11 22:33:21;;;;;;;16.65;11.12;;;;;;;3.50;74.54;92679.42;1671767;84;22179;-43
2022/12/11 22:35:57;;;;;;;12.98;10.05;;;;;;;3.54;74.29;92680.02;1668256;84;21058;-44
2022/12/11 22:38:24;;;;;;;12.70;8.93;;;;;;;3.50;74.15;92676.70;1600494;89;21100;-43
2022/12/11 22:40:52;;;;;;;8.35;7.47;;;;;;;3.52;74.46;92675.65;1599967;87;21026;-44
2022/12/11 22:43:19;;;;;;;11.70;8.40;;;;;;;3.55;74.61;92683.52;1587318;87;21191;-44
2022/12/11 22:45:46;;;;;;;7.83;7.03;;;;;;;3.51;74.69;92683.66;1556517;91;21309;-43
2022/12/11 22:48:12;;;;;;;8.80;6.83;;;;;;;3.54;74.08;92682.74;1558136;90;21033;-43
2022/12/11 22:50:39;;;;;;;10.90;8.18;;;;;;;3.57;73.64;92687.30;1552691;90;21083;-44
2022/12/11 22:53:05;;;;;;;9.03;7.33;;;;;;;3.57;73.21;92679.14;1529307;93;21098;-44
2022/12/11 22:55:36;;;;;;;11.05;8.40;;;;;;;3.51;72.88;92683.66;1505076;94;21096;-44
2022/12/11 22:58:02;;;;;;;10.43;7.53;;;;;;;3.45;72.90;92686.67;1545457;91;21541;-44
2022/12/11 23:00:29;;;;;;;12.78;9.60;;;;;;;3.42;72.90;92683.51;1625628;83;21042;-45
